La Plata, MD

10:02 PM EDT on May 06, 2015 (GMT -0400)
Locust Grove Estates (sec 5) | | Change Station
CLOSE
Current Station
Personal Weather Station
Location: Port Tobacco, MD
Elevation: 184 ft
Nearby Weather Stations

Elev 184 ft 38.50 °N, 77.00 °W | Updated 12 minutes ago

Partly Cloudy
Partly Cloudy
66.6 °F
Feels Like 66.6 °F
N
0.0
Wind Variable Wind from North

Today
High -- | Low -- °F
--% Chance of Precip.
Yesterday
High -- | Low -- °F
Precip. -- in
6:05 AM 8:04 PM
Waning Gibbous, 91% visible
Pressure 30.17 in
Visibility 10.0 miles
Clouds Few 12000 ft
Dew Point 61 °F
Humidity 83%
Rainfall 0.00 in
Snow Depth Not available.
UV 0 out of 12
Pollen 7.50 out of 12
Air Quality Not available.
Flu Activity Local Activity
METAR KNYG 070056Z AUTO 18006KT 10SM FEW120 21/17 A3016 RMK AO2 SLP214 T02110172

More Conditions Fewer Conditions

Pressure 30.17 in
Visibility 10.0 miles
Clouds Few 12000 ft
Dew Point 61 °F
Humidity 83%
Rainfall 0.00 in
Snow Depth Not available.
UV 0 out of 12
Pollen 7.50 out of 12
Air Quality Not available.
Flu Activity Local Activity
METAR KNYG 070056Z AUTO 18006KT 10SM FEW120 21/17 A3016 RMK AO2 SLP214 T02110172

More Conditions Fewer Conditions

10-Day Weather Forecast

Almanac

Astronomy

May. 06, 2015 Rise Set
Actual Time
Civil Twilight
Nautical Twilight
Astronomical Twilight
Moon
Length of Visible Light
Length of Day
Tomorrow will be .
, % of the Moon is Illuminated

Today's Extremes

State Highs State Lows

Community

WunderPhotos

Upload Photos

1,819,074 photos uploaded!

WunderBlogs® & News

Nearby

Air Quality

  Air Quality AQ Index Pollutant
Not available.

Snow Depth

Station Depth Elevation

Earthquake Activity

City Distance Mag. Time & Date
Minimum magnitude displayed is 2.5.

Coastal Water Temperatures

Place Temperature

Stations

Nearby Weather Stations

Station Location Temp. Windchill Dew Point Humidity Wind Precip. Elev Updated Type